Flight Track Log - Related Links

Times and Time Zones

All times are in EDT time to prevent confusion due to time zone crossing. See the N9191V flight status page for this flight to view local times or setup timezone preferences in your user account.

Time Position Orientation Groundspeed Altitude Reporting Facility
EDT Latitude Longitude Course Direction KTS MPH feet Rate Location/Type
Thu 02:24:51 PM 42.7631 -73.8061 359° North 84 97 800  Level Boston Center
Thu 02:25:28 PM 42.7797 -73.8064 359° North 93 107 1,100 446 Climbing Boston Center
Thu 02:26:52 PM 42.7750 -73.8544 262° West 109 125 1,700 455 Climbing Boston Center
Thu 02:27:53 PM 42.7478 -73.8764 211° Southwest 107 123 2,200 490 Climbing Boston Center
Thu 02:28:30 PM 42.7331 -73.8900 214° Southwest 107 123 2,500 367 Climbing Boston Center
Thu 02:29:31 PM 42.7075 -73.9150 216° Southwest 110 127 2,800 446 Climbing Boston Center
Thu 02:30:31 PM 42.6822 -73.9342 209° Southwest 109 125 3,400 595 Climbing Boston Center
Thu 02:31:32 PM 42.6569 -73.9561 213° Southwest 105 121 4,000 563 Climbing Boston Center
Thu 02:32:39 PM 42.6275 -73.9808 212° Southwest 108 124 4,600 516 Climbing Boston Center
Thu 02:33:40 PM 42.6022 -74.0028 213° Southwest 108 124 5,100 466 Climbing Boston Center
Thu 02:34:35 PM 42.5789 -74.0247 215° Southwest 111 128 5,500 417 Climbing Boston Center
Thu 02:35:35 PM 42.5517 -74.0467 211° Southwest 116 133 5,900 496 Climbing Boston Center
Thu 02:36:36 PM 42.5222 -74.0683 208° Southwest 120 138 6,500 621 Climbing Boston Center
Thu 02:37:31 PM 42.4947 -74.0872 207° Southwest 118 136 7,100 517 Climbing Boston Center
Thu 02:38:32 PM 42.4653 -74.1092 209° Southwest 121 139 7,500 361 Climbing Boston Center
Thu 02:39:44 PM 42.4400 -74.1308 212° Southwest 126 145 7,900 455 Climbing Boston Center
Thu 02:40:44 PM 42.4019 -74.1608 210° Southwest 126 145 8,500 350 Climbing Boston Center
Thu 02:41:44 PM 42.3661 -74.1908 212° Southwest 134 154 8,600 50 Climbing Boston Center
Thu 02:42:44 PM 42.3322 -74.2150 208° Southwest 147 169 8,600  Level Boston Center
Thu 02:43:44 PM 42.2881 -74.2503 211° Southwest 163 188 8,600  Level Boston Center
Thu 02:44:44 PM 42.2542 -74.2775 211° Southwest 163 188 8,600  Level Boston Center
Thu 02:45:44 PM 42.2100 -74.3069 206° Southwest 163 188 8,600  Level Boston Center
Thu 02:46:44 PM 42.1761 -74.3311 208° Southwest 163 188 8,600  Level Boston Center
Thu 02:47:44 PM 42.1339 -74.3606 207° Southwest 163 188 8,600  Level Boston Center
Thu 02:48:44 PM 42.0981 -74.3847 207° Southwest 163 188 8,600  Level Boston Center
Thu 02:49:44 PM 42.0539 -74.4169 208° Southwest 163 188 8,600  Level Boston Center
Thu 02:50:44 PM 42.0158 -74.4408 205° Southwest 163 188 8,600 50 Level Boston Center
Thu 02:51:44 PM 41.9736 -74.4703 207° Southwest 163 188 8,700  Climbing Boston Center
Thu 02:52:44 PM 41.9358 -74.4942 205° Southwest 163 188 8,600 -50 Descending Boston Center
Thu 02:53:44 PM 41.8914 -74.5289 210° Southwest 168 193 8,600  Level Boston Center
Thu 02:54:44 PM 41.8533 -74.5583 210° Southwest 168 193 8,600  Level Boston Center
Thu 02:55:44 PM 41.8089 -74.5931 210° Southwest 168 193 8,600 -50 Level Boston Center
Thu 02:56:44 PM 41.7686 -74.6250 211° Southwest 168 193 8,500 -50 Descending Boston Center
Thu 02:57:44 PM 41.7283 -74.6600 213° Southwest 168 193 8,500 100 Level Boston Center
Thu 02:58:44 PM 41.6881 -74.6892 208° Southwest 168 193 8,700 40 Climbing Boston Center
Thu 03:00:00 PM 41.6378 -74.7144 201° Southwest  Level FlightAware Approximate
Thu 03:02:47 PM 41.5339 -74.8114 209° Southwest 174 200 8,700  Level New York Center
Thu 03:03:47 PM 41.4892 -74.8447 209° Southwest 174 200 8,600  Descending New York Center
Thu 03:04:47 PM 41.4547 -74.8731 212° Southwest 174 200 8,700 51 Climbing New York Center
Thu 03:05:45 PM 41.4100 -74.9036 207° Southwest 169 194 8,700  Level New York Center
Thu 03:06:46 PM 41.3714 -74.9400 215° Southwest 169 194 8,700 -49 Level New York Center
Thu 03:07:00 PM 41.3721 -74.8920 209° Southwest  Level FlightAware Approximate
Thu 03:07:47 PM 41.3347 -74.9681 210° Southwest 169 194 8,600  Level New York Center
Thu 03:08:45 PM 41.2900 -75.0011 209° Southwest 169 194 8,600 51 Level New York Center
Thu 03:09:45 PM 41.2492 -75.0317 209° Southwest 169 194 8,700 50 Climbing New York Center
Thu 03:10:46 PM 41.2086 -75.0622 210° Southwest 169 194 8,700  Level New York Center
Thu 03:11:47 PM 41.1722 -75.0875 208° Southwest 169 194 8,700  Level New York Center
Thu 03:12:47 PM 41.1294 -75.1178 208° Southwest 164 189 8,700  Level New York Center
Thu 03:13:48 PM 41.0867 -75.1508 210° Southwest 164 189 8,700  Level New York Center
Thu 03:14:45 PM 41.0439 -75.1783 206° Southwest 164 189 8,700  Level New York Center
Thu 03:15:46 PM 41.0056 -75.2033 206° Southwest 172 198 8,700  Level New York Center
Thu 03:16:46 PM 40.9628 -75.2336 208° Southwest 172 198 8,700  Level New York Center
Thu 03:17:47 PM 40.9200 -75.2636 208° Southwest 172 198 8,700  Level New York Center
Thu 03:18:47 PM 40.8772 -75.2911 206° Southwest 172 198 8,700  Level New York Center
Thu 03:19:47 PM 40.8386 -75.3186 208° Southwest 166 191 8,700  Level New York Center
Thu 03:20:46 PM 40.8000 -75.3461 208° Southwest 166 191 8,700  Level New York Center
Thu 03:21:47 PM 40.7550 -75.3761 207° Southwest 166 191 8,700  Level New York Center
Thu 03:22:47 PM 40.7144 -75.4036 207° Southwest 166 191 8,700  Level New York Center
Thu 03:23:46 PM 40.6717 -75.4308 206° Southwest 166 191 8,700  Level New York Center
Thu 03:24:46 PM 40.6375 -75.4558 209° Southwest 166 191 8,700  Level New York Center
Thu 03:25:46 PM 40.5967 -75.4831 207° Southwest 166 191 8,700  Level New York Center
Thu 03:26:45 PM 40.5581 -75.5106 208° Southwest 166 191 8,700  Level New York Center
Thu 03:27:46 PM 40.5172 -75.5403 209° Southwest 166 191 8,700  Level New York Center
Thu 03:28:47 PM 40.4722 -75.5700 207° Southwest 166 191 8,700  Level New York Center
Thu 03:29:47 PM 40.4358 -75.5947 207° Southwest 166 191 8,700  Level New York Center
Thu 03:30:46 PM 40.3972 -75.6219 208° Southwest 166 191 8,700  Level New York Center
Thu 03:31:46 PM 40.3522 -75.6542 209° Southwest 166 191 8,700  Level New York Center
Thu 03:32:47 PM 40.3117 -75.6786 205° Southwest 166 191 8,700  Level New York Center
Thu 03:33:45 PM 40.2708 -75.7083 209° Southwest 166 191 8,700  Level New York Center
Thu 03:34:45 PM 40.2364 -75.7303 206° Southwest 161 185 8,700  Level New York Center
Thu 03:35:46 PM 40.1917 -75.7569 204° Southwest 176 203 8,700  Level New York Center
Thu 03:36:47 PM 40.1486 -75.7892 210° Southwest 176 203 8,700  Level New York Center
Thu 03:37:47 PM 40.1122 -75.8111 205° Southwest 170 196 8,700  Level New York Center
Thu 03:38:45 PM 40.0672 -75.8403 206° Southwest 165 190 8,700  Level New York Center
Thu 03:39:45 PM 40.0286 -75.8647 206° Southwest 165 190 8,700  Level New York Center
Thu 03:40:46 PM 39.9856 -75.8942 208° Southwest 165 190 8,700  Level New York Center
Thu 03:41:46 PM 39.9489 -75.9211 209° Southwest 165 190 8,700  Level New York Center
Thu 03:42:45 PM 39.9058 -75.9506 208° Southwest 165 190 8,700  Level New York Center
Thu 03:43:46 PM 39.8675 -75.9747 206° Southwest 165 190 8,700  Level New York Center
Thu 03:44:46 PM 39.8244 -76.0011 205° Southwest 165 190 8,700  Level New York Center
Thu 03:45:47 PM 39.7881 -76.0256 207° Southwest 165 190 8,700 -170 Level New York Center
Thu 03:48:18 PM 39.6833 -76.0833 203° Southwest 169 194 8,100 -284 Descending Potomac TRACON
Thu 03:49:18 PM 39.6333 -76.1167 207° Southwest 172 198 7,700 -421 Descending Potomac TRACON
Thu 03:50:12 PM 39.6000 -76.1333 201° Southwest 168 193 7,300 -417 Descending Potomac TRACON
Thu 03:51:13 PM 39.5500 -76.1667 207° Southwest 172 198 6,900 -397 Descending Potomac TRACON
Thu 03:52:13 PM 39.5167 -76.1833 201° Southwest 167 192 6,500 -450 Descending Potomac TRACON
Thu 03:53:13 PM 39.4667 -76.2333 218° Southwest 177 204 6,000 -496 Descending Potomac TRACON
Thu 03:54:14 PM 39.4500 -76.2833 247° West 177 204 5,500 -446 Descending Potomac TRACON
Thu 03:55:14 PM 39.4167 -76.3333 229° Southwest 175 201 5,100 -298 Descending Potomac TRACON
Thu 03:56:15 PM 39.4000 -76.3833 247° West 169 194 4,900 -248 Descending Potomac TRACON
Thu 03:57:15 PM 39.3667 -76.4167 218° Southwest 167 192 4,600 -198 Descending Potomac TRACON
Thu 03:58:16 PM 39.3167 -76.4500 207° Southwest 159 183 4,500 -50 Descending Potomac TRACON
Thu 03:59:16 PM 39.2833 -76.4333 159° South 141 162 4,500  Level Potomac TRACON
Thu 04:00:11 PM 39.2500 -76.4167 159° South 143 165 4,500  Level Potomac TRACON
Thu 04:01:17 PM 39.2000 -76.4000 166° South 140 161 4,500  Level Potomac TRACON
Thu 04:02:17 PM 39.1667 -76.3833 159° South 141 162 4,500  Level Potomac TRACON
Thu 04:03:12 PM 39.1333 -76.3667 159° South 144 166 4,500 -261 Level Potomac TRACON
Thu 04:04:12 PM 39.1000 -76.3500 159° South 151 174 4,000 -545 Descending Potomac TRACON
Thu 04:05:13 PM 39.0500 -76.3667 195° South 161 185 3,400 -645 Descending Potomac TRACON
Thu 04:06:13 PM 39.0167 -76.4000 218° Southwest 162 186 2,700 -595 Descending Potomac TRACON
Thu 04:07:14 PM 38.9833 -76.4333 218° Southwest 158 182 2,200 -446 Descending Potomac TRACON
Thu 04:08:14 PM 38.9500 -76.4667 218° Southwest 156 180 1,800 -400 Descending Potomac TRACON
Thu 04:09:14 PM 38.9500 -76.5167 270° West 154 177 1,400 -100 Descending Potomac TRACON
Thu 04:10:14 PM 38.9500 -76.5667 270° West 140 161 1,600  Climbing Potomac TRACON
Thu 04:11:14 PM 38.9667 -76.6167 293° West 134 154 1,400 -500 Descending Potomac TRACON
Thu 04:12:14 PM 38.9500 -76.6000 142° Southeast 104 120 600 -496 Descending Potomac TRACON
Thu 04:13:15 PM 38.9500 -76.5667 90° East 91 105 400 -197 Descending Potomac TRACON
Thu 04:15:00 PM 38.9429 -76.5684 180° South  Level Estimated
Thu 04:22:00 PM 38.9429 -76.5684 210° Southwest  Level Estimated
Thu 04:23:00 PM 38.9429 -76.5684 210° Southwest  Level Estimated

Login

Don't have an account? Register now (free) for customized features, flight alerts, and more!